Anchorage, AK (99523)

1:30 PM AKST on December 28, 2014 (GMT -0900)
Waldron Drive | Change Station
CLOSE
Current Station
Personal Weather Station
Location: Anchorage, AK
Elevation: 154 ft
Nearby Weather Stations

Elev 154 ft 61.17 °N, 149.85 °W | Updated 4 seconds ago

Mostly Cloudy
Mostly Cloudy
24.6 °F
Feels Like 25 °F
N
0.0
Wind Variable Wind from West
Gusts 0.0 mph

Today
High -- | Low -- °F
--% Chance of Precip.
Yesterday
High -- | Low -- °F
Precip. -- in
10:14 AM 3:47 PM
First Quarter, 52% visible
Pressure 30.47 in
Visibility 10.0 miles
Clouds Mostly Cloudy 9000 ft
Windchill 25 °F
Dew Point 19 °F
Humidity 78%
Rainfall 0.00 in
Snow Depth Not available.
UV 0 out of 12
Pollen Not available.
Air Quality Not available.
Flu Activity Not available.
METAR PAMR 282153Z 05004KT 10SM BKN090 M04/M08 A3046 RMK AO2 SLP317 T10441078 $

More Conditions Fewer Conditions

Pressure 30.47 in
Visibility 10.0 miles
Clouds Mostly Cloudy 9000 ft
Windchill 25 °F
Dew Point 19 °F
Humidity 78%
Rainfall 0.00 in
Snow Depth Not available.
UV 0 out of 12
Pollen Not available.
Air Quality Not available.
Flu Activity Not available.
METAR PAMR 282153Z 05004KT 10SM BKN090 M04/M08 A3046 RMK AO2 SLP317 T10441078 $

More Conditions Fewer Conditions

10-Day Weather Forecast

Almanac

Astronomy

Dec. 28, 2014 Rise Set
Actual Time
Civil Twilight
Nautical Twilight
Astronomical Twilight
Moon
Length of Visible Light
Length of Day
Tomorrow will be .
, % of the Moon is Illuminated

Today's Extremes

State Highs State Lows

Community

WunderPhotos

Upload Photos

1,781,448 photos uploaded!

WunderBlogs® & News

Nearby

Air Quality

  Air Quality AQ Index Pollutant
Not available.

Snow Depth

Station Depth Elevation

Earthquake Activity

City Distance Mag. Time & Date
Minimum magnitude displayed is 2.5.

Coastal Water Temperatures

Place Temperature

Nearby Weather Stations